Time;durP1;ratioP1;P1;durP2;ratioP2;P2;SDS_P1;SDS_P2;PMS_P1;PMS_P2;Temp;Humidity;BMP_temperature;BMP_pressure;BME280_temperature;BME280_humidity;BME280_pressure;Samples;Min_cycle;Max_cycle;Signal;HPM_P1;HPM_P2
2022/03/22 00:01:36;;;;;;;27.10;13.45;;;;;;;6.03;100.00;102347.16;5073072;28;20048;-91
2022/03/22 00:04:03;;;;;;;27.83;13.90;;;;;;;5.99;100.00;102342.81;5073905;28;20105;-91
2022/03/22 00:06:31;;;;;;;27.67;13.88;;;;;;;5.86;100.00;102334.03;5074344;28;20406;-91
2022/03/22 00:08:58;;;;;;;30.27;16.15;;;;;;;5.66;100.00;102333.00;5074600;28;20556;-91
2022/03/22 00:11:24;;;;;;;32.42;14.80;;;;;;;5.50;100.00;102306.88;5072727;28;20049;-91
2022/03/22 00:13:51;;;;;;;30.35;17.05;;;;;;;5.39;100.00;102316.31;5063500;28;20048;-90
2022/03/22 00:16:18;;;;;;;27.42;15.00;;;;;;;5.30;100.00;102322.28;5054026;28;20053;-90
2022/03/22 00:19:05;;;;;;;28.40;14.60;;;;;;;5.19;100.00;102310.94;5072719;28;20095;-90
2022/03/22 00:21:32;;;;;;;24.42;13.60;;;;;;;5.22;100.00;102310.06;5073510;28;20143;-90
2022/03/22 00:23:59;;;;;;;29.85;14.05;;;;;;;5.37;100.00;102330.16;5073616;28;20501;-90
2022/03/22 00:26:25;;;;;;;26.58;13.82;;;;;;;5.37;100.00;102331.00;5073617;28;20048;-89
2022/03/22 00:28:53;;;;;;;28.50;13.65;;;;;;;5.50;100.00;102353.63;5074209;28;20087;-90
2022/03/22 00:31:20;;;;;;;26.60;12.63;;;;;;;5.60;100.00;102353.75;5075295;28;20058;-90
2022/03/22 00:33:46;;;;;;;24.13;13.65;;;;;;;5.27;100.00;102321.38;5074031;28;20075;-89
2022/03/22 00:36:13;;;;;;;27.83;15.00;;;;;;;5.10;100.00;102306.50;5075741;28;20491;-90
2022/03/22 00:38:40;;;;;;;27.35;14.50;;;;;;;5.29;100.00;102337.84;5075102;28;20131;-90
2022/03/22 00:41:07;;;;;;;29.40;15.95;;;;;;;5.08;100.00;102303.03;5075126;28;20139;-90
2022/03/22 00:43:34;;;;;;;29.90;15.57;;;;;;;5.28;100.00;102333.53;5073369;28;20041;-90
2022/03/22 00:46:02;;;;;;;31.83;14.60;;;;;;;5.10;100.00;102329.03;5073466;28;20127;-90
2022/03/22 00:48:29;;;;;;;26.33;12.95;;;;;;;5.19;100.00;102323.91;5073358;28;20505;-90
2022/03/22 00:50:56;;;;;;;29.80;13.73;;;;;;;5.18;100.00;102314.38;5074931;28;20078;-90
2022/03/22 00:53:23;;;;;;;29.30;15.25;;;;;;;5.22;100.00;102352.47;5072491;28;20135;-90
2022/03/22 00:55:50;;;;;;;27.33;14.95;;;;;;;5.26;100.00;102346.50;5074754;28;20466;-89
2022/03/22 00:58:18;;;;;;;26.98;14.77;;;;;;;5.15;100.00;102335.09;5073606;28;20059;-89
2022/03/22 01:00:48;;;;;;;27.63;15.73;;;;;;;5.21;100.00;102336.91;5070062;28;20067;-89
2022/03/22 01:03:15;;;;;;;25.42;13.93;;;;;;;5.28;100.00;102354.31;5069180;28;20520;-90
2022/03/22 01:05:42;;;;;;;28.60;15.65;;;;;;;5.41;100.00;102356.16;5073656;28;20070;-89
2022/03/22 01:08:11;;;;;;;27.10;15.48;;;;;;;5.05;100.00;102307.31;5072665;28;20044;-89
2022/03/22 01:10:43;;;;;;;25.58;13.85;;;;;;;5.34;100.00;102330.97;5072178;28;20127;-89
2022/03/22 01:13:11;;;;;;;27.02;14.50;;;;;;;5.22;100.00;102341.25;5068362;28;20084;-89
2022/03/22 01:15:42;;;;;;;25.65;13.40;;;;;;;5.18;100.00;102331.69;5053199;28;20543;-90
2022/03/22 01:18:11;;;;;;;26.65;15.18;;;;;;;5.02;100.00;102312.47;5054402;28;20390;-90
2022/03/22 01:20:46;;;;;;;27.15;14.77;;;;;;;5.14;100.00;102356.75;5053333;28;20442;-90
2022/03/22 01:23:14;;;;;;;28.60;15.27;;;;;;;4.71;100.00;102314.72;5063204;28;20491;-89
2022/03/22 01:25:43;;;;;;;26.90;14.30;;;;;;;4.98;100.00;102344.47;5053032;28;20522;-89
2022/03/22 01:28:12;;;;;;;24.33;14.00;;;;;;;4.83;100.00;102321.78;5052968;28;20103;-90
2022/03/22 01:30:40;;;;;;;20.90;11.23;;;;;;;4.65;100.00;102281.78;5052166;28;20537;-89
2022/03/22 01:33:08;;;;;;;30.27;15.35;;;;;;;4.60;100.00;102309.38;5063974;28;20045;-90
2022/03/22 01:35:35;;;;;;;35.97;15.77;;;;;;;4.89;100.00;102347.81;5053019;28;20132;-90
2022/03/22 01:38:02;;;;;;;28.77;15.25;;;;;;;4.83;100.00;102333.00;5052929;28;20099;-90
2022/03/22 01:40:31;;;;;;;27.77;14.43;;;;;;;4.66;100.00;102309.47;5065508;28;20059;-90
2022/03/22 01:42:58;;;;;;;24.25;13.63;;;;;;;4.99;100.00;102341.00;5071990;28;20113;-90
2022/03/22 01:45:25;;;;;;;26.63;14.85;;;;;;;4.75;100.00;102304.41;5072476;28;20048;-90
2022/03/22 01:47:54;;;;;;;33.78;14.93;;;;;;;4.35;100.00;102256.34;5072162;28;20151;-90
2022/03/22 01:50:22;;;;;;;25.02;13.77;;;;;;;4.69;100.00;102301.75;5068877;28;20398;-91
2022/03/22 01:52:49;;;;;;;29.63;15.75;;;;;;;4.44;100.00;102265.97;5061321;28;20152;-91
2022/03/22 01:55:18;;;;;;;26.17;15.55;;;;;;;4.52;100.00;102298.06;5052808;28;20068;-91
2022/03/22 01:57:46;;;;;;;27.15;16.30;;;;;;;4.55;100.00;102291.19;5052792;28;20075;-90
2022/03/22 02:00:18;;;;;;;25.00;12.45;;;;;;;4.66;100.00;102306.03;5052703;28;20167;-91
2022/03/22 02:05:55;;;;;;;34.42;15.80;;;;;;;4.95;100.00;102342.69;5073760;28;20048;-91
2022/03/22 02:08:30;;;;;;;30.33;15.20;;;;;;;4.79;100.00;102343.38;5061684;28;20071;-91
2022/03/22 02:10:59;;;;;;;26.45;16.23;;;;;;;4.41;100.00;102290.16;5068124;28;20056;-91
2022/03/22 02:13:28;;;;;;;30.35;14.18;;;;;;;4.64;100.00;102297.31;5071481;28;20133;-91
2022/03/22 02:15:58;;;;;;;30.13;14.77;;;;;;;4.95;100.00;102347.88;5072610;28;20056;-91
2022/03/22 02:18:25;;;;;;;30.08;14.63;;;;;;;4.62;100.00;102318.09;5073406;28;20059;-90
2022/03/22 02:20:53;;;;;;;23.50;12.75;;;;;;;4.80;100.00;102325.22;5071736;28;20084;-89
2022/03/22 02:23:42;;;;;;;24.05;13.25;;;;;;;4.80;100.00;102317.44;5065812;28;20371;-90
2022/03/22 02:26:09;;;;;;;28.83;13.32;;;;;;;4.68;100.00;102322.47;5068825;28;20059;-90
2022/03/22 02:28:36;;;;;;;28.48;17.30;;;;;;;4.74;100.00;102341.56;5062440;28;20065;-89
2022/03/22 02:31:03;;;;;;;28.10;15.82;;;;;;;4.61;100.00;102323.25;5072255;28;20048;-90
2022/03/22 02:33:30;;;;;;;29.70;15.50;;;;;;;4.50;100.00;102321.38;5068021;28;20051;-90
2022/03/22 02:35:57;;;;;;;27.50;14.40;;;;;;;4.65;100.00;102336.25;5055797;28;20139;-90
2022/03/22 02:38:23;;;;;;;27.10;15.90;;;;;;;4.70;100.00;102334.59;5055814;28;20057;-89
2022/03/22 02:40:50;;;;;;;28.58;13.38;;;;;;;4.91;100.00;102328.78;5069740;28;20058;-89
2022/03/22 02:43:17;;;;;;;26.90;15.23;;;;;;;5.02;100.00;102336.69;5075080;28;20055;-90
2022/03/22 02:45:44;;;;;;;27.85;14.60;;;;;;;4.87;100.00;102321.84;5076747;28;20053;-90
2022/03/22 02:48:11;;;;;;;29.10;15.65;;;;;;;4.80;100.00;102322.63;5070600;28;20055;-89
2022/03/22 02:50:38;;;;;;;27.52;14.98;;;;;;;4.57;100.00;102325.81;5076041;28;20056;-90
2022/03/22 02:53:05;;;;;;;26.67;15.82;;;;;;;4.59;100.00;102317.19;5075183;28;20052;-90
2022/03/22 02:55:32;;;;;;;27.88;14.15;;;;;;;4.89;100.00;102340.03;5075734;28;20048;-90
2022/03/22 02:57:59;;;;;;;25.50;13.75;;;;;;;4.58;100.00;102334.44;5076176;28;20119;-90
2022/03/22 03:00:26;;;;;;;27.30;15.80;;;;;;;4.50;100.00;102347.31;5075486;28;20048;-90
2022/03/22 03:02:54;;;;;;;30.45;14.73;;;;;;;4.52;100.00;102335.25;5074939;28;20139;-91
2022/03/22 03:05:22;;;;;;;25.75;13.95;;;;;;;4.52;100.00;102327.47;5077084;28;20047;-90
2022/03/22 03:07:50;;;;;;;28.25;14.48;;;;;;;4.55;100.00;102330.09;5071712;28;20045;-91
2022/03/22 03:10:17;;;;;;;29.20;16.20;;;;;;;4.39;100.00;102322.94;5076416;28;20072;-90
2022/03/22 03:12:44;;;;;;;27.20;15.30;;;;;;;4.06;100.00;102254.25;5074599;28;20052;-90
2022/03/22 03:15:12;;;;;;;24.85;12.32;;;;;;;4.42;100.00;102259.88;5075011;28;20052;-90
2022/03/22 03:17:39;;;;;;;21.80;10.90;;;;;;;4.98;100.00;102337.53;5065271;28;20056;-90
2022/03/22 03:20:07;;;;;;;27.30;14.23;;;;;;;4.53;100.00;102268.66;5058877;28;20050;-90
2022/03/22 03:22:34;;;;;;;29.35;15.80;;;;;;;4.50;100.00;102334.34;5074384;28;20059;-90
2022/03/22 03:25:00;;;;;;;28.17;14.77;;;;;;;4.09;100.00;102261.19;5074714;28;20135;-90
2022/03/22 03:27:27;;;;;;;25.17;12.35;;;;;;;4.25;100.00;102312.41;5075790;28;20087;-90
2022/03/22 03:29:54;;;;;;;23.77;12.50;;;;;;;4.51;100.00;102346.47;5075352;28;20056;-90
2022/03/22 03:32:21;;;;;;;28.25;14.90;;;;;;;3.91;100.00;102254.03;5076179;28;20056;-90
2022/03/22 03:34:48;;;;;;;27.60;14.45;;;;;;;4.39;100.00;102322.94;5075150;28;20457;-90
2022/03/22 03:37:14;;;;;;;29.23;15.32;;;;;;;4.19;100.00;102302.81;5059902;28;20080;-90
2022/03/22 03:39:41;;;;;;;24.45;13.20;;;;;;;3.98;100.00;102268.81;5075588;28;20059;-90
2022/03/22 03:42:09;;;;;;;27.88;15.15;;;;;;;4.27;100.00;102302.06;5076071;28;20059;-90
2022/03/22 03:47:23;;;;;;;29.70;15.50;;;;;;;4.45;100.00;102329.97;5056795;28;20048;-89
2022/03/22 03:49:53;;;;;;;31.00;16.75;;;;;;;4.26;100.00;102329.69;5055476;28;20156;-89
2022/03/22 03:52:42;;;;;;;30.35;16.17;;;;;;;4.22;100.00;102329.66;5063522;28;20048;-89
2022/03/22 03:55:10;;;;;;;29.13;15.38;;;;;;;4.02;100.00;102272.31;5074655;28;20070;-90
2022/03/22 03:57:37;;;;;;;27.33;14.57;;;;;;;4.21;100.00;102302.81;5075269;28;20052;-90
2022/03/22 04:00:07;;;;;;;26.08;13.75;;;;;;;4.34;100.00;102340.19;5075664;28;20487;-90
2022/03/22 04:02:33;;;;;;;24.23;13.90;;;;;;;4.18;100.00;102316.63;5075365;28;20176;-90
2022/03/22 04:05:00;;;;;;;27.58;15.43;;;;;;;4.13;100.00;102318.28;5070811;28;20131;-90
2022/03/22 04:07:27;;;;;;;27.67;13.70;;;;;;;4.20;100.00;102316.66;5054592;28;20064;-90
2022/03/22 04:09:54;;;;;;;29.23;15.45;;;;;;;4.32;100.00;102345.34;5055561;28;20060;-90
2022/03/22 04:12:22;;;;;;;25.45;15.15;;;;;;;4.31;100.00;102346.19;5080667;28;20454;-90
2022/03/22 04:14:51;;;;;;;30.77;16.30;;;;;;;4.26;100.00;102328.84;5074331;28;20048;-89
2022/03/22 04:17:18;;;;;;;33.83;16.50;;;;;;;4.20;100.00;102340.00;5074510;28;20056;-90
2022/03/22 04:19:45;;;;;;;24.35;13.07;;;;;;;4.13;100.00;102333.84;5075525;28;20045;-90
2022/03/22 04:22:13;;;;;;;28.33;15.57;;;;;;;4.18;100.00;102347.75;5073457;28;20487;-90
2022/03/22 04:24:41;;;;;;;21.45;11.52;;;;;;;4.29;100.00;102334.94;5071005;28;20713;-89
2022/03/22 04:32:44;;;;;;;25.63;14.60;;;;;;;3.75;100.00;102330.66;5074363;28;20056;-87
2022/03/22 04:35:12;;;;;;;46.40;18.75;;;;;;;3.82;100.00;102357.53;5069586;28;20048;-89
2022/03/22 04:37:39;;;;;;;25.58;13.23;;;;;;;3.75;100.00;102348.78;5054409;28;20049;-90
2022/03/22 04:40:07;;;;;;;26.33;13.52;;;;;;;3.70;100.00;102299.50;5054785;28;20549;-90
2022/03/22 04:42:35;;;;;;;25.05;13.98;;;;;;;3.84;100.00;102366.19;5064099;28;20052;-90
2022/03/22 04:45:03;;;;;;;22.40;12.68;;;;;;;3.80;100.00;102334.19;5073822;28;20048;-90
2022/03/22 04:47:30;;;;;;;26.27;13.18;;;;;;;3.85;100.00;102342.06;5074573;28;20442;-89
2022/03/22 04:49:56;;;;;;;30.17;13.40;;;;;;;3.62;100.00;102321.81;5074550;28;20048;-90
2022/03/22 04:57:54;;;;;;;29.55;14.85;;;;;;;3.40;100.00;102286.94;5074619;28;20139;-90
2022/03/22 05:00:21;;;;;;;24.98;13.95;;;;;;;3.82;100.00;102336.81;5074042;28;20048;-90
2022/03/22 05:02:48;;;;;;;26.23;14.23;;;;;;;3.71;100.00;102336.63;5074243;28;20148;-90
2022/03/22 05:05:15;;;;;;;27.17;13.63;;;;;;;3.88;100.00;102348.16;5074200;28;20439;-89
2022/03/22 05:07:42;;;;;;;25.98;14.10;;;;;;;3.72;100.00;102312.47;5073353;28;20048;-90
2022/03/22 05:10:10;;;;;;;26.05;12.07;;;;;;;3.68;100.00;102298.59;5075226;28;20072;-90
2022/03/22 05:12:39;;;;;;;27.05;13.88;;;;;;;3.61;100.00;102322.66;5072829;28;20040;-89
2022/03/22 05:15:09;;;;;;;27.23;13.68;;;;;;;3.58;100.00;102322.63;5073610;28;20588;-90
2022/03/22 05:17:35;;;;;;;28.80;16.33;;;;;;;3.72;100.00;102313.34;5073518;28;20136;-90
2022/03/22 05:20:04;;;;;;;28.92;14.80;;;;;;;3.87;100.00;102350.72;5073616;28;20057;-91
2022/03/22 05:22:35;;;;;;;23.92;13.38;;;;;;;3.59;100.00;102296.75;5072733;28;20067;-88
2022/03/22 05:25:02;;;;;;;29.08;17.60;;;;;;;3.75;100.00;102326.38;5071208;28;20045;-90
2022/03/22 05:27:29;;;;;;;24.85;14.00;;;;;;;3.70;100.00;102350.44;5073498;28;20058;-90
2022/03/22 05:29:56;;;;;;;18.35;10.73;;;;;;;3.72;100.00;102313.34;5073022;28;20049;-88
2022/03/22 05:32:22;;;;;;;27.33;14.02;;;;;;;3.79;100.00;102340.25;5071903;28;20390;-90
2022/03/22 05:34:49;;;;;;;23.33;14.30;;;;;;;3.89;100.00;102354.19;5072756;28;20070;-88
2022/03/22 05:37:16;;;;;;;26.13;12.43;;;;;;;3.99;100.00;102364.72;5073246;28;20049;-89
2022/03/22 05:39:44;;;;;;;20.23;12.68;;;;;;;3.99;100.00;102346.59;5073243;28;20506;-89
2022/03/22 05:42:13;;;;;;;28.33;14.82;;;;;;;4.12;100.00;102359.75;5071498;28;20081;-90
2022/03/22 05:44:43;;;;;;;28.23;14.80;;;;;;;3.64;100.00;102327.03;5074150;28;20041;-89
2022/03/22 05:47:10;;;;;;;24.58;13.05;;;;;;;3.98;100.00;102363.00;5072639;28;20052;-90
2022/03/22 05:49:38;;;;;;;37.17;17.48;;;;;;;3.80;100.00;102360.09;5072408;28;20083;-90
2022/03/22 05:52:06;;;;;;;31.63;18.30;;;;;;;3.87;100.00;102382.66;5067687;28;20140;-89
2022/03/22 05:54:34;;;;;;;31.30;14.63;;;;;;;3.99;100.00;102364.72;5052038;28;20049;-89
2022/03/22 05:57:01;;;;;;;29.48;13.70;;;;;;;4.31;100.00;102389.41;5070345;28;20056;-89
2022/03/22 05:59:27;;;;;;;29.45;15.98;;;;;;;3.86;100.00;102367.09;5071079;28;20040;-90
2022/03/22 06:01:54;;;;;;;28.45;15.80;;;;;;;3.86;100.00;102374.88;5067858;28;20045;-90
2022/03/22 06:04:21;;;;;;;22.63;13.50;;;;;;;3.91;100.00;102349.91;5052523;28;20494;-90
2022/03/22 06:06:48;;;;;;;25.20;14.32;;;;;;;4.28;100.00;102389.38;5068776;28;20084;-90
2022/03/22 06:09:15;;;;;;;27.42;14.65;;;;;;;3.99;100.00;102361.28;5071906;28;20531;-90
2022/03/22 06:11:42;;;;;;;28.10;15.40;;;;;;;3.94;100.00;102361.19;5071713;28;20063;-90
2022/03/22 06:14:09;;;;;;;27.63;14.95;;;;;;;4.08;100.00;102392.53;5086273;28;20148;-91
2022/03/22 06:16:36;;;;;;;30.98;16.45;;;;;;;4.01;100.00;102382.91;5072725;28;20053;-90
2022/03/22 06:19:03;;;;;;;30.58;15.90;;;;;;;3.85;100.00;102339.47;5072366;28;20083;-90
2022/03/22 06:21:30;;;;;;;24.58;13.88;;;;;;;3.75;100.00;102323.78;5071686;28;20052;-90
2022/03/22 06:23:57;;;;;;;29.33;15.07;;;;;;;3.92;100.00;102357.72;5072000;28;20604;-90
2022/03/22 06:26:24;;;;;;;27.55;15.27;;;;;;;3.66;100.00;102318.41;5071988;28;20059;-91
2022/03/22 06:28:50;;;;;;;25.52;13.80;;;;;;;4.12;100.00;102385.66;5064024;28;20052;-90
2022/03/22 06:31:17;;;;;;;29.10;15.77;;;;;;;3.93;100.00;102364.66;5064973;28;20044;-90
2022/03/22 06:33:44;;;;;;;22.73;13.27;;;;;;;3.93;100.00;102353.38;5066156;28;20075;-90
2022/03/22 06:36:11;;;;;;;27.02;14.70;;;;;;;3.91;100.00;102360.28;5072074;28;20466;-90
2022/03/22 06:38:39;;;;;;;30.80;16.05;;;;;;;3.91;100.00;102362.88;5069498;28;20506;-90
2022/03/22 06:41:06;;;;;;;27.52;14.48;;;;;;;3.97;100.00;102389.75;5062548;28;20135;-88
2022/03/22 06:43:32;;;;;;;23.17;13.70;;;;;;;3.93;100.00;102363.75;5070330;28;20404;-90
2022/03/22 06:46:00;;;;;;;30.20;15.13;;;;;;;3.55;100.00;102331.19;5068029;28;20065;-87
2022/03/22 06:48:27;;;;;;;29.08;16.88;;;;;;;3.66;100.00;102372.81;5067479;28;20053;-90
2022/03/22 06:50:54;;;;;;;31.80;15.43;;;;;;;4.14;100.00;102390.03;5069427;28;20055;-88
2022/03/22 06:53:20;;;;;;;26.52;12.15;;;;;;;4.56;100.00;102409.66;5069137;28;20154;-91
2022/03/22 06:55:47;;;;;;;27.25;15.02;;;;;;;4.36;100.00;102408.50;5067258;28;20118;-92
2022/03/22 06:58:18;;;;;;;29.50;15.25;;;;;;;4.52;100.00;102412.19;5064375;28;20114;-87
2022/03/22 07:00:46;;;;;;;32.47;14.85;;;;;;;4.48;100.00;102408.69;5072816;28;20048;-89
2022/03/22 07:03:13;;;;;;;25.45;14.82;;;;;;;4.62;100.00;102418.38;5069957;28;20056;-88
2022/03/22 07:05:42;;;;;;;25.75;14.30;;;;;;;4.60;100.00;102417.50;5070845;28;20036;-90
2022/03/22 07:08:09;;;;;;;22.40;13.07;;;;;;;4.75;100.00;102417.72;5062862;28;20128;-88
2022/03/22 07:10:35;;;;;;;19.70;11.50;;;;;;;4.96;100.00;102406.75;5052178;28;20049;-89
2022/03/22 07:13:06;;;;;;;28.25;15.88;;;;;;;4.57;100.00;102415.75;5064572;28;20052;-88
2022/03/22 07:15:35;;;;;;;22.92;13.48;;;;;;;4.94;100.00;102424.88;5071369;28;20045;-86
2022/03/22 07:18:05;;;;;;;24.33;14.98;;;;;;;5.38;100.00;102428.84;5066989;28;20060;-87
2022/03/22 07:20:32;;;;;;;31.92;16.10;;;;;;;5.61;100.00;102415.22;5069793;28;20455;-88
2022/03/22 07:23:00;;;;;;;36.78;20.65;;;;;;;5.77;100.00;102429.25;5067954;28;20116;-88
2022/03/22 07:25:28;;;;;;;41.03;21.83;;;;;;;5.87;100.00;102437.13;5067577;28;20049;-88
2022/03/22 07:27:55;;;;;;;41.55;22.73;;;;;;;5.81;100.00;102431.03;5071313;28;20052;-88
2022/03/22 07:30:22;;;;;;;33.85;20.63;;;;;;;6.04;100.00;102439.94;5072261;28;20041;-89
2022/03/22 07:32:49;;;;;;;31.27;17.13;;;;;;;6.46;100.00;102450.66;5072111;28;20071;-89
2022/03/22 07:35:19;;;;;;;27.42;16.45;;;;;;;6.90;100.00;102426.59;5072183;28;20041;-90
2022/03/22 07:37:48;;;;;;;25.38;14.63;;;;;;;7.34;100.00;102443.28;5068143;28;20072;-89
2022/03/22 07:40:16;;;;;;;22.65;12.45;;;;;;;7.51;100.00;102441.59;5072160;28;20044;-89
2022/03/22 07:42:44;;;;;;;23.67;15.48;;;;;;;7.08;100.00;102427.56;5063297;28;20471;-89
2022/03/22 07:45:11;;;;;;;26.90;14.32;;;;;;;7.55;100.00;102453.78;5061265;28;20075;-89
2022/03/22 07:47:40;;;;;;;29.33;15.98;;;;;;;7.43;100.00;102458.94;5054345;28;20148;-88
2022/03/22 07:53:05;;;;;;;27.40;16.33;;;;;;;8.49;100.00;102458.22;5068331;28;20120;-86
2022/03/22 07:55:39;;;;;;;26.27;14.27;;;;;;;8.70;100.00;102436.41;5074882;28;20049;-87
2022/03/22 07:58:07;;;;;;;29.38;16.05;;;;;;;8.68;100.00;102415.53;5073858;28;20059;-87
2022/03/22 08:00:39;;;;;;;34.17;21.83;;;;;;;9.40;100.00;102437.88;5067364;28;20059;-85
2022/03/22 08:03:09;;;;;;;25.73;15.35;;;;;;;9.62;100.00;102453.44;5073058;28;20128;-88
2022/03/22 08:05:38;;;;;;;22.23;13.63;;;;;;;9.58;100.00;102436.00;5069040;28;20051;-89
2022/03/22 08:08:06;;;;;;;26.15;14.68;;;;;;;9.64;100.00;102415.91;5062118;28;20685;-89
2022/03/22 08:10:53;;;;;;;24.95;13.27;;;;;;;10.03;100.00;102406.03;5074489;28;20044;-88
2022/03/22 08:13:19;;;;;;;30.48;15.10;;;;;;;10.02;100.00;102458.38;5072074;28;20408;-89
2022/03/22 08:15:46;;;;;;;26.20;14.10;;;;;;;10.10;100.00;102448.72;5069408;28;20099;-89
2022/03/22 08:18:13;;;;;;;28.15;13.27;;;;;;;10.47;100.00;102430.09;5081282;28;20504;-89
2022/03/22 08:20:40;;;;;;;30.45;15.27;;;;;;;10.26;100.00;102425.91;5070087;28;20118;-89
2022/03/22 08:23:09;;;;;;;30.77;15.90;;;;;;;10.20;100.00;102410.28;5067399;28;20174;-89
2022/03/22 08:25:39;;;;;;;35.58;16.92;;;;;;;10.25;100.00;102421.53;5072738;28;20087;-89
2022/03/22 08:28:07;;;;;;;29.70;15.88;;;;;;;10.25;100.00;102459.06;5052848;28;20050;-89
2022/03/22 08:30:36;;;;;;;31.02;16.88;;;;;;;10.25;100.00;102443.38;5053373;28;20144;-89
2022/03/22 08:33:09;;;;;;;29.10;15.27;;;;;;;10.72;100.00;102466.53;5068616;28;20545;-88
2022/03/22 08:35:41;;;;;;;;;;;;;;;11.20;100.00;102458.97;5074172;28;20040;-87
2022/03/22 08:38:10;;;;;;;27.50;14.38;;;;;;;11.04;100.00;102442.56;5067400;28;19926;-88
2022/03/22 08:40:39;;;;;;;26.70;15.65;;;;;;;10.84;100.00;102421.84;5055356;28;20094;-89
2022/03/22 08:43:08;;;;;;;31.15;15.90;;;;;;;11.72;100.00;102420.63;5071028;28;20538;-88
2022/03/22 08:45:36;;;;;;;25.77;16.38;;;;;;;11.29;100.00;102435.25;5075139;28;20127;-89
2022/03/22 08:48:09;;;;;;;30.13;17.65;;;;;;;11.77;100.00;102452.91;5074069;28;20056;-88
2022/03/22 08:50:37;;;;;;;;;;;;;;;11.83;100.00;102460.72;5074709;28;20486;-87
2022/03/22 08:53:05;;;;;;;40.80;18.70;;;;;;;11.36;100.00;102386.19;5066052;28;20422;-88
2022/03/22 08:55:32;;;;;;;38.20;22.13;;;;;;;11.40;100.00;102438.59;5054532;28;20037;-91
2022/03/22 08:58:05;;;;;;;37.38;23.05;;;;;;;12.01;100.00;102454.34;5069970;28;20194;-90
2022/03/22 09:00:33;;;;;;;32.58;20.23;;;;;;;12.28;100.00;102420.63;5069980;28;20048;-88
2022/03/22 09:03:01;;;;;;;32.58;19.60;;;;;;;12.80;100.00;102461.72;5071384;28;20411;-89
2022/03/22 09:08:14;;;;;;;33.65;15.70;;;;;;;12.12;100.00;102431.38;5070902;28;20470;-90
2022/03/22 09:10:41;;;;;;;32.30;19.88;;;;;;;11.93;100.00;102417.72;5074334;28;20143;-89
2022/03/22 09:13:08;;;;;;;38.58;21.20;;;;;;;11.93;100.00;102448.34;5073050;28;20068;-89
2022/03/22 09:15:37;;;;;;;31.27;16.02;;;;;;;12.37;100.00;102462.47;5069074;28;20063;-85
2022/03/22 09:18:14;;;;;;;25.13;12.80;;;;;;;12.64;100.00;102462.88;5071973;28;20144;-88
2022/03/22 09:20:43;;;;;;;32.70;16.73;;;;;;;12.38;100.00;102464.22;5070957;28;20066;-88
2022/03/22 09:23:11;;;;;;;29.60;15.73;;;;;;;12.56;100.00;102426.25;5071797;28;20495;-89
2022/03/22 09:25:40;;;;;;;27.42;15.25;;;;;;;12.69;100.00;102416.34;5071994;28;20128;-89
2022/03/22 09:28:08;;;;;;;23.30;13.60;;;;;;;12.96;96.31;102399.16;5057504;28;20084;-89
2022/03/22 09:30:36;;;;;;;23.17;12.32;;;;;;;13.28;95.78;102413.38;5073229;28;20066;-87
2022/03/22 09:33:04;;;;;;;32.83;18.98;;;;;;;13.15;93.21;102419.81;5069501;28;20071;-88
2022/03/22 09:35:31;;;;;;;30.05;17.50;;;;;;;13.30;94.62;102459.78;5072800;28;20620;-89
2022/03/22 09:37:59;;;;;;;26.73;14.48;;;;;;;13.28;93.00;102424.75;5073431;28;20055;-89
2022/03/22 09:40:27;;;;;;;28.02;16.10;;;;;;;13.66;92.86;102461.66;5075554;28;20095;-91
2022/03/22 09:42:55;;;;;;;38.40;18.83;;;;;;;13.58;91.92;102451.31;5073552;28;20048;-90
2022/03/22 09:45:25;;;;;;;50.78;21.80;;;;;;;12.78;92.38;102410.03;5075505;28;20079;-91
2022/03/22 09:47:52;;;;;;;28.27;13.60;;;;;;;13.72;92.28;102439.59;5074404;28;20401;-90
2022/03/22 09:50:20;;;;;;;25.70;11.48;;;;;;;14.15;88.57;102436.78;5073878;28;20044;-91
2022/03/22 09:52:47;;;;;;;23.85;13.40;;;;;;;13.93;89.21;102452.25;5073620;28;20159;-91
2022/03/22 09:55:16;;;;;;;32.95;15.32;;;;;;;13.91;86.29;102461.94;5070712;28;20131;-91
2022/03/22 09:57:44;;;;;;;36.50;16.63;;;;;;;13.94;84.80;102405.72;5054291;28;20084;-90
2022/03/22 10:00:14;;;;;;;29.52;16.05;;;;;;;14.23;82.94;102460.28;5070933;28;20066;-90
2022/03/22 10:02:41;;;;;;;25.55;13.25;;;;;;;14.49;82.89;102471.94;5065122;28;20410;-91
2022/03/22 10:05:22;;;;;;;33.15;18.02;;;;;;;14.19;81.78;102471.81;5074357;28;20135;-89
2022/03/22 10:08:06;;;;;;;32.22;16.20;;;;;;;14.27;83.52;102450.53;5074536;28;20054;-91
2022/03/22 10:10:34;;;;;;;28.83;15.77;;;;;;;14.58;81.56;102467.31;5073363;28;20095;-90
2022/03/22 10:13:03;;;;;;;26.58;14.80;;;;;;;14.80;79.78;102478.16;5072090;28;20274;-89
2022/03/22 10:15:32;;;;;;;33.78;16.10;;;;;;;14.90;79.66;102477.88;5070255;28;20053;-90
2022/03/22 10:18:04;;;;;;;37.10;16.92;;;;;;;14.40;82.14;102420.34;5070851;28;20049;-91
2022/03/22 10:20:33;;;;;;;31.17;14.18;;;;;;;15.10;83.78;102479.94;5072128;28;20048;-88
2022/03/22 10:23:01;;;;;;;39.72;19.25;;;;;;;13.84;82.82;102420.88;5065801;28;20053;-87
2022/03/22 10:25:33;;;;;;;27.60;14.98;;;;;;;14.38;84.77;102459.91;5066080;28;20059;-88
2022/03/22 10:28:02;;;;;;;40.13;17.55;;;;;;;14.10;85.34;102440.44;5070857;28;20048;-88
2022/03/22 10:30:30;;;;;;;30.52;16.38;;;;;;;14.44;86.39;102448.31;5070551;28;20044;-88
2022/03/22 10:32:58;;;;;;;36.25;18.30;;;;;;;14.85;83.40;102471.88;5069386;28;20055;-87
2022/03/22 10:35:28;;;;;;;27.38;13.65;;;;;;;15.20;82.07;102439.19;5067639;28;20429;-87
2022/03/22 10:38:18;;;;;;;33.60;15.90;;;;;;;15.49;80.65;102471.75;5055623;28;20049;-89
2022/03/22 10:40:46;;;;;;;30.65;15.68;;;;;;;15.36;80.08;102471.28;5051257;28;20128;-88
2022/03/22 10:43:25;;;;;;;28.00;16.38;;;;;;;15.54;77.45;102473.34;5067687;28;20072;-88
2022/03/22 10:46:02;;;;;;;29.60;13.23;;;;;;;15.79;75.29;102469.09;5071611;28;20148;-88
2022/03/22 10:48:33;;;;;;;31.48;15.13;;;;;;;15.53;72.88;102461.06;5070840;28;20052;-88
2022/03/22 10:51:02;;;;;;;34.10;17.20;;;;;;;15.62;70.95;102464.34;5066564;28;20101;-87
2022/03/22 10:53:31;;;;;;;31.05;16.45;;;;;;;15.74;71.86;102434.88;5065531;28;20495;-86
2022/03/22 10:55:59;;;;;;;32.70;16.63;;;;;;;15.90;70.47;102481.06;5063707;28;20128;-88
2022/03/22 10:58:28;;;;;;;27.20;14.60;;;;;;;16.19;71.83;102483.66;5061581;28;20049;-88
2022/03/22 11:00:56;;;;;;;25.38;14.10;;;;;;;15.85;71.21;102466.28;5073540;28;20056;-87
2022/03/22 11:03:25;;;;;;;34.03;16.80;;;;;;;15.58;70.94;102479.38;5073738;28;20098;-88
2022/03/22 11:05:54;;;;;;;35.70;18.42;;;;;;;15.65;71.14;102456.31;5069854;28;20037;-88
2022/03/22 11:08:23;;;;;;;28.52;15.20;;;;;;;15.94;70.60;102458.91;5075705;28;20930;-88
2022/03/22 11:10:53;;;;;;;35.45;18.67;;;;;;;15.62;71.38;102478.41;5075069;28;20464;-88
2022/03/22 11:13:24;;;;;;;31.15;15.05;;;;;;;16.05;70.63;102458.56;5075491;28;20492;-88
2022/03/22 11:15:52;;;;;;;31.15;17.05;;;;;;;16.08;72.42;102476.09;5073599;28;20556;-88
2022/03/22 11:18:20;;;;;;;29.70;14.50;;;;;;;16.20;71.21;102449.25;5075946;28;20100;-89
2022/03/22 11:20:59;;;;;;;39.33;18.13;;;;;;;16.61;70.26;102469.88;5064648;28;20402;-88
2022/03/22 11:23:28;;;;;;;28.92;14.65;;;;;;;16.61;71.40;102468.09;5073202;28;20048;-89
2022/03/22 11:26:10;;;;;;;26.92;14.20;;;;;;;17.06;69.92;102466.50;5074312;28;21394;-90
2022/03/22 11:28:39;;;;;;;36.80;19.48;;;;;;;15.99;68.92;102457.88;5069546;28;20076;-88
2022/03/22 11:31:11;;;;;;;35.53;17.52;;;;;;;16.50;70.13;102471.13;5069158;28;20084;-89
2022/03/22 11:36:28;;;;;;;25.70;13.82;;;;;;;16.61;68.29;102472.50;5075265;28;20076;-88
2022/03/22 11:38:57;;;;;;;40.45;17.10;;;;;;;15.94;69.68;102469.47;5074952;28;20485;-86
2022/03/22 11:44:21;;;;;;;37.15;19.40;;;;;;;16.05;75.22;102482.34;5070884;28;20091;-88